Latest Weather Observations for Adelaide Airport

IDS60801

Issued at 4:01 am CST Monday 24 July 2017 (issued every 30 minutes, with the page automatically refreshed every 10 minutes)

About weather observations | Map of weather stations | Latest weather observations for SA | Other Formats
Station Details ID: 023034 Name: ADELAIDE AIRPORT Lat: -34.95 Lon: 138.52 Height: 2.0 m
Data from the previous 72 hours. | See also: Recent months at Adelaide Airport
Date/Time
CST
Temp
°C
App
Temp
°C
Dew
Point
°C
Rel
Hum
%
Delta-T
°C
Wind Press
QNH
hPa
Press
MSL
hPa
Rain since
9am
mm
Dir  Spd
km/h
Gust
km/h
Spd
kts
Gust
kts
24/03:30am 8.7 6.2 8.1 96 0.3 NE 11 13 6 7 1020.6 1020.6 7.6
24/03:00am 9.1 6.2 8.3 95 0.4 NNE 13 17 7 9 1020.7 1020.7 7.6
24/02:30am 9.2 5.6 8.4 95 0.4 NNE 17 22 9 12 1020.9 1020.9 7.6
24/02:20am 9.0 6.2 8.4 96 0.3 NNE 13 17 7 9 1020.9 1020.9 7.6
24/02:00am 8.8 5.5 8.0 95 0.4 NNE 15 17 8 9 1020.9 1020.9 7.6
24/01:30am 9.2 5.7 8.6 96 0.3 NNE 17 19 9 10 1020.7 1020.7 7.6
24/01:00am 8.7 5.4 8.1 96 0.3 NE 15 17 8 9 1020.7 1020.7 7.6
24/12:30am 8.8 6.3 8.4 97 0.2 NE 11 13 6 7 1020.9 1020.9 7.6
24/12:00am 8.9 6.4 8.3 96 0.3 NE 11 13 6 7 1020.8 1020.8 7.6
 
Date/Time
CST
Temp
°C
App
Temp
°C
Dew
Point
°C
Rel
Hum
%
Delta-T
°C
Wind Press
QNH
hPa
Press
MSL
hPa
Rain since
9am
mm
Dir  Spd
km/h
Gust
km/h
Spd
kts
Gust
kts
23/11:38pm 8.5 5.5 7.9 96 0.3 NE 13 15 7 8 1020.9 1020.9 7.6
23/11:30pm 8.4 6.2 8.0 97 0.2 NE 9 11 5 6 1020.8 1020.8 7.6
23/11:00pm 8.8 6.3 8.2 96 0.3 NE 11 13 6 7 1020.8 1020.8 7.6
23/10:30pm 9.7 8.1 8.9 95 0.4 NNE 7 11 4 6 1020.7 1020.7 7.6
23/10:00pm 10.8 9.2 10.2 96 0.3 NW 9 11 5 6 1020.6 1020.6 7.6
23/09:30pm 10.6 8.1 9.8 95 0.4 NNE 13 15 7 8 1020.5 1020.5 7.6
23/09:19pm 9.3 6.6 9.1 99 0.1 NE 13 15 7 8 1020.4 1020.4 7.4
23/09:00pm 10.9 9.3 10.3 96 0.3 N 9 9 5 5 1020.2 1020.2 7.4
23/08:30pm 11.1 9.4 9.9 92 0.6 NNE 9 9 5 5 1019.9 1019.9 7.4
23/08:00pm 12.8 11.8 10.9 88 1.0 WNW 7 9 4 5 1019.5 1019.5 7.4
23/07:30pm 12.7 10.6 11.2 91 0.8 WSW 13 17 7 9 1019.2 1019.2 7.4
23/07:00pm 12.7 11.4 11.2 91 0.8 WSW 9 13 5 7 1019.1 1019.1 7.4
23/06:30pm 12.8 11.0 10.9 88 1.0 W 11 15 6 8 1018.8 1018.8 7.4
23/06:00pm 13.0 11.3 11.3 89 0.9 W 11 13 6 7 1018.5 1018.5 7.4
23/05:30pm 13.4 11.3 11.3 87 1.1 W 13 17 7 9 1018.4 1018.4 7.4
23/05:00pm 13.4 9.7 11.5 88 1.0 WSW 22 30 12 16 1018.2 1018.2 7.4
23/04:30pm 14.2 11.2 11.8 85 1.3 WSW 19 26 10 14 1018.2 1018.2 7.4
23/04:00pm 13.9 11.0 12.4 91 0.8 WSW 19 26 10 14 1018.1 1018.1 7.4
23/03:52pm 13.7 11.2 12.4 92 0.7 WSW 17 28 9 15 1017.9 1017.9 7.4
23/03:30pm 12.9 8.5 11.6 92 0.7 SW 26 33 14 18 1017.9 1017.9 6.8
23/03:27pm 13.3 9.0 12.0 92 0.7 SW 26 33 14 18 1017.9 1017.9 5.6
23/03:00pm 15.0 11.2 11.2 78 2.0 W 22 32 12 17 1017.5 1017.5 4.8
23/02:30pm 15.5 11.8 12.8 84 1.5 W 24 35 13 19 1017.5 1017.5 4.8
23/02:00pm 15.9 12.7 11.8 76 2.2 WNW 20 28 11 15 1017.4 1017.4 4.8
23/01:30pm 15.6 12.1 12.3 81 1.8 W 22 30 12 16 1017.6 1017.6 4.8
23/01:00pm 13.8 11.4 11.3 85 1.3 W 15 28 8 15 1017.8 1017.8 4.8
23/12:30pm 12.1 7.8 10.7 91 0.7 WSW 24 33 13 18 1018.1 1018.1 4.6
23/12:17pm 14.2 9.5 10.8 80 1.8 NW 26 35 14 19 1018.4 1018.4 0.0
23/12:00pm 15.2 10.4 11.7 79 1.9 NW 28 33 15 18 1018.2 1018.2 0.0
23/11:30am 15.2 11.2 11.7 79 1.9 NW 24 32 13 17 1018.4 1018.4 0.0
23/11:00am 14.8 10.2 12.2 84 1.4 NW 28 33 15 18 1018.6 1018.6 0.0
23/10:30am 14.5 10.7 12.3 87 1.2 NW 24 32 13 17 1018.7 1018.7 0.0
23/10:22am 14.2 10.3 12.0 87 1.2 NW 24 32 13 17 1018.7 1018.7 0.0
23/10:00am 13.8 9.9 12.1 89 0.9 NW 24 32 13 17 1018.4 1018.4 0.0
23/09:30am 13.3 10.1 12.0 92 0.7 NNW 20 26 11 14 1018.2 1018.2 0.0
23/09:00am 11.8 9.3 11.0 95 0.4 N 15 17 8 9 1017.9 1017.9 0.0
23/08:47am 11.7 9.5 10.9 95 0.4 N 13 17 7 9 1017.8 1017.8 0.0
23/08:37am 11.3 9.1 10.7 96 0.3 N 13 17 7 9 1017.6 1017.6 0.0
23/08:30am 11.2 8.9 10.6 96 0.3 N 13 17 7 9 1017.6 1017.6 0.0
23/08:13am 10.5 8.1 10.1 97 0.2 N 13 17 7 9 1017.5 1017.5 0.0
23/08:00am 10.0 7.1 9.6 97 0.2 N 15 19 8 10 1017.4 1017.4 0.0
23/07:30am 10.0 7.5 9.6 97 0.2 N 13 15 7 8 1017.2 1017.2 0.0
23/07:00am 9.8 7.2 9.4 97 0.2 N 13 17 7 9 1016.9 1016.9 0.0
23/06:37am 9.8 7.2 9.2 96 0.3 NNE 13 17 7 9 1016.8 1016.8 0.0
23/06:30am 10.3 7.5 9.9 97 0.2 NNE 15 17 8 9 1016.7 1016.7 0.0
23/06:00am 10.1 7.6 9.7 97 0.2 NNE 13 15 7 8 1016.4 1016.4 0.0
23/05:56am 10.1 7.6 9.7 97 0.2 NNE 13 15 7 8 1016.3 1016.3 0.0
23/05:30am 10.0 7.0 9.4 96 0.3 NE 15 17 8 9 1016.2 1016.2 0.0
23/05:27am 9.9 6.9 9.3 96 0.3 NE 15 17 8 9 1016.2 1016.2 0.0
23/05:00am 12.2 10.6 11.6 96 0.3 N 11 13 6 7 1016.0 1016.0 0.0
23/04:30am 12.3 10.7 11.5 95 0.4 NNW 11 15 6 8 1015.9 1015.9 0.0
23/04:00am 12.4 10.0 11.5 94 0.5 NNW 15 19 8 10 1015.8 1015.8 0.0
23/03:30am 12.3 9.1 11.3 94 0.5 NNW 19 22 10 12 1015.8 1015.8 0.0
23/03:00am 12.6 9.5 11.5 93 0.6 NNW 19 24 10 13 1015.7 1015.7 0.0
23/02:30am 12.9 10.1 11.2 89 0.9 NNW 17 24 9 13 1015.7 1015.7 0.0
23/02:00am 12.2 9.9 10.5 89 0.9 NNW 13 17 7 9 1015.7 1015.7 0.0
23/01:30am 11.0 8.3 9.0 87 1.0 N 13 15 7 8 1015.9 1015.9 0.0
23/01:00am 10.9 8.1 8.5 85 1.2 N 13 17 7 9 1015.7 1015.7 0.0
23/12:30am 9.3 5.8 7.0 85 1.1 NNE 15 17 8 9 1015.8 1015.8 0.0
23/12:00am 8.4 4.6 6.0 85 1.1 NE 15 15 8 8 1015.7 1015.7 0.0
 
Date/Time
CST
Temp
°C
App
Temp
°C
Dew
Point
°C
Rel
Hum
%
Delta-T
°C
Wind Press
QNH
hPa
Press
MSL
hPa
Rain since
9am
mm
Dir  Spd
km/h
Gust
km/h
Spd
kts
Gust
kts
22/11:30pm 9.4 6.5 6.4 81 1.4 NNE 11 13 6 7 1015.8 1015.8 0.0
22/11:00pm 9.3 5.8 5.3 76 1.8 NE 13 15 7 8 1015.8 1015.8 0.0
22/10:30pm 10.2 7.1 5.4 72 2.2 NE 11 13 6 7 1015.8 1015.8 0.0
22/10:00pm 10.4 7.7 5.6 72 2.2 NNE 9 11 5 6 1015.6 1015.6 0.0
22/09:30pm 10.4 7.2 4.9 69 2.5 NNE 11 11 6 6 1015.4 1015.4 0.0
22/09:00pm 11.1 7.8 4.7 64 2.9 NNE 11 13 6 7 1015.2 1015.2 0.0
22/08:30pm 12.6 9.3 4.5 58 3.7 NNE 11 13 6 7 1015.1 1015.1 0.0
22/08:00pm 13.5 10.2 4.3 53 4.2 N 11 15 6 8 1014.9 1014.9 0.0
22/07:30pm 13.6 10.0 5.2 57 3.9 N 13 17 7 9 1014.6 1014.6 0.0
22/07:00pm 15.9 10.9 3.7 44 5.6 N 19 26 10 14 1014.3 1014.3 0.0
22/06:30pm 16.5 10.8 2.9 40 6.2 N 22 30 12 16 1014.1 1014.1 0.0
22/06:00pm 16.7 10.6 2.9 39 6.3 N 24 32 13 17 1013.8 1013.8 0.0
22/05:30pm 16.7 10.7 3.2 40 6.2 NNW 24 35 13 19 1013.6 1013.6 0.0
22/05:00pm 17.1 10.7 3.2 39 6.4 NNW 26 35 14 19 1013.5 1013.5 0.0
22/04:30pm 17.5 11.0 2.6 37 6.8 NNW 26 37 14 20 1013.5 1013.5 0.0
22/04:00pm 17.6 10.2 2.1 35 7.0 NNW 30 41 16 22 1013.4 1013.4 0.0
22/03:30pm 17.3 9.1 2.6 37 6.7 NNW 35 41 19 22 1013.4 1013.4 0.0
22/03:00pm 17.2 8.2 2.7 38 6.6 NNW 39 48 21 26 1013.6 1013.6 0.0
22/02:30pm 17.0 8.7 2.4 37 6.6 NNW 35 46 19 25 1014.0 1014.0 0.0
22/02:00pm 17.0 9.2 3.0 39 6.4 NNW 33 46 18 25 1014.2 1014.2 0.0
22/01:30pm 16.9 8.0 2.9 39 6.4 NNW 39 57 21 31 1014.6 1014.6 0.0
22/01:00pm 16.7 7.8 3.2 40 6.2 NNW 39 57 21 31 1015.3 1015.3 0.0
22/12:30pm 16.9 9.0 4.1 42 6.0 NNW 35 48 19 26 1015.7 1015.7 0.0
22/12:00pm 16.8 9.2 3.0 39 6.3 N 32 54 17 29 1016.3 1016.3 0.0
22/11:45am 16.4 8.7 3.3 41 6.0 N 33 57 18 31 1016.5 1016.5 0.0
22/11:30am 15.8 8.3 3.6 44 5.6 N 32 44 17 24 1016.9 1016.9 0.0
22/11:03am 15.9 7.7 2.8 41 5.9 N 35 54 19 29 1017.2 1017.2 0.0
22/11:00am 15.5 7.7 2.8 42 5.7 N 33 44 18 24 1017.3 1017.3 0.0
22/10:30am 14.8 7.4 1.8 41 5.7 N 30 46 16 25 1017.4 1017.4 0.0
22/10:00am 14.4 7.8 1.8 42 5.5 N 26 37 14 20 1017.6 1017.6 0.0
22/09:30am 13.5 6.0 1.0 42 5.3 N 30 41 16 22 1017.7 1017.7 0.0
22/09:00am 12.5 5.8 1.4 46 4.7 N 26 32 14 17 1017.9 1017.9 0.0
22/08:30am 12.4 6.5 1.6 47 4.6 N 22 32 12 17 1018.0 1018.0 0.0
22/08:00am 11.5 4.9 2.1 52 4.0 NNE 26 33 14 18 1018.2 1018.2 0.0
22/07:30am 12.1 5.8 1.8 49 4.4 NNE 24 30 13 16 1018.2 1018.2 0.0
22/07:00am 11.9 5.7 2.4 52 4.1 N 24 33 13 18 1018.1 1018.1 0.0
22/06:30am 12.5 5.7 1.1 45 4.8 NNE 26 37 14 20 1017.9 1017.9 0.0
22/06:00am 12.2 4.8 1.6 48 4.5 NNE 30 37 16 20 1017.4 1017.4 0.0
22/05:30am 12.1 5.4 1.5 48 4.5 NNE 26 30 14 16 1017.5 1017.5 0.0
22/05:00am 12.0 4.9 1.6 49 4.4 NNE 28 33 15 18 1017.2 1017.2 0.0
22/04:30am 12.1 5.8 1.8 49 4.4 NNE 24 30 13 16 1017.6 1017.6 0.0
22/04:00am 12.0 7.1 1.9 50 4.3 NE 17 20 9 11 1018.2 1018.2 0.0
22/03:30am 12.4 7.1 1.9 48 4.5 NE 19 26 10 14 1018.4 1018.4 0.0
22/03:00am 12.4 7.5 1.9 48 4.5 NE 17 22 9 12 1018.4 1018.4 0.0
22/02:30am 12.5 7.9 1.7 47 4.6 NNE 15 24 8 13 1018.5 1018.5 0.0
22/02:00am 12.8 8.6 1.9 47 4.7 NNE 13 19 7 10 1018.5 1018.5 0.0
22/01:30am 12.8 8.3 1.9 47 4.7 NE 15 17 8 9 1018.2 1018.2 0.0
22/01:00am 10.7 6.8 3.6 61 3.1 ENE 13 15 7 8 1018.1 1018.1 0.0
22/12:30am 11.5 8.6 2.4 53 3.9 NNE 7 9 4 5 1018.0 1018.0 0.0
22/12:00am 11.1 6.3 2.8 56 3.6 NE 17 20 9 11 1017.3 1017.3 0.0
 
Date/Time
CST
Temp
°C
App
Temp
°C
Dew
Point
°C
Rel
Hum
%
Delta-T
°C
Wind Press
QNH
hPa
Press
MSL
hPa
Rain since
9am
mm
Dir  Spd
km/h
Gust
km/h
Spd
kts
Gust
kts
21/11:30pm 12.2 7.0 2.5 51 4.2 NE 19 22 10 12 1017.4 1017.4 0.0
21/11:00pm 11.9 6.3 3.3 55 3.8 NE 22 28 12 15 1017.5 1017.5 0.0
21/10:30pm 13.4 8.0 2.4 47 4.8 NE 20 24 11 13 1017.8 1017.8 0.0
21/10:00pm 13.6 7.9 3.0 48 4.7 NE 22 26 12 14 1018.1 1018.1 0.0
21/09:30pm 13.2 7.6 3.6 52 4.3 NE 22 28 12 15 1017.9 1017.9 0.0
21/09:00pm 12.9 7.4 4.0 54 4.0 NE 22 28 12 15 1018.2 1018.2 0.0
21/08:30pm 12.7 7.2 4.0 55 3.9 NE 22 26 12 14 1018.5 1018.5 0.0
21/08:00pm 12.0 7.2 4.5 60 3.4 NE 19 24 10 13 1018.4 1018.4 0.0
21/07:30pm 11.9 7.9 5.1 63 3.1 NE 15 20 8 11 1018.5 1018.5 0.0
21/07:00pm 13.4 8.6 4.7 55 4.0 NE 19 22 10 12 1018.4 1018.4 0.0
21/06:30pm 13.2 8.9 5.2 58 3.7 NE 17 20 9 11 1018.3 1018.3 0.0
21/06:00pm 14.0 9.6 5.0 54 4.2 NNE 17 19 9 10 1018.6 1018.6 0.0
21/05:30pm 15.7 11.1 3.7 44 5.5 N 17 20 9 11 1018.6 1018.6 0.0
21/05:00pm 16.6 10.1 2.7 39 6.3 N 26 32 14 17 1018.4 1018.4 0.0
21/04:30pm 17.2 10.8 3.3 39 6.4 N 26 37 14 20 1018.4 1018.4 0.0
21/04:00pm 17.0 11.9 3.9 41 6.1 N 20 28 11 15 1018.4 1018.4 0.0
21/03:30pm 17.1 12.1 3.4 40 6.3 N 19 28 10 15 1018.4 1018.4 0.0
21/03:00pm 17.0 10.6 3.0 39 6.4 NNW 26 32 14 17 1018.6 1018.6 0.0
21/02:30pm 17.4 10.9 2.7 37 6.7 N 26 39 14 21 1018.5 1018.5 0.0
21/02:00pm 17.4 10.5 2.7 37 6.7 N 28 39 15 21 1018.5 1018.5 0.0
21/01:30pm 17.4 10.5 2.4 36 6.8 N 28 41 15 22 1018.9 1018.9 0.0
21/01:00pm 16.6 8.8 2.0 37 6.5 N 32 39 17 21 1019.2 1019.2 0.0
21/12:30pm 16.5 8.7 1.9 37 6.5 N 32 39 17 21 1019.9 1019.9 0.0
21/12:00pm 16.3 9.3 1.9 38 6.4 N 28 37 15 20 1020.4 1020.4 0.0
21/11:30am 15.2 8.4 3.0 44 5.5 N 28 33 15 18 1020.9 1020.9 0.0
21/11:00am 14.9 8.4 2.8 44 5.4 N 26 33 14 18 1021.4 1021.4 0.0
21/10:30am 14.2 7.6 2.1 44 5.3 N 26 33 14 18 1021.8 1021.8 0.0
21/10:00am 13.6 7.6 1.1 42 5.3 NNE 22 32 12 17 1021.6 1021.6 0.0
21/09:30am 13.0 6.8 2.4 48 4.6 NNE 24 33 13 18 1021.5 1021.5 0.0
21/09:00am 11.6 5.7 2.0 51 4.1 NNE 22 30 12 16 1021.4 1021.4 0.0
21/08:30am 10.0 5.1 2.2 58 3.3 NNE 17 24 9 13 1021.4 1021.4 0.0
21/08:00am 8.1 3.6 2.0 65 2.5 NE 15 17 8 9 1021.3 1021.3 0.0
21/07:30am 7.4 2.9 2.0 68 2.2 NE 15 17 8 9 1021.1 1021.1 0.0
21/07:00am 7.9 3.3 1.8 65 2.5 NE 15 19 8 10 1020.9 1020.9 0.0
21/06:30am 7.8 2.9 2.2 68 2.3 NE 17 20 9 11 1020.6 1020.6 0.0
21/06:00am 7.7 2.9 2.7 70 2.1 NE 17 17 9 9 1020.5 1020.5 0.0
21/05:30am 8.0 2.8 2.7 69 2.2 NE 19 22 10 12 1020.4 1020.4 0.0
21/05:00am 6.2 1.5 3.1 80 1.3 NE 17 20 9 11 1020.4 1020.4 0.0
21/04:30am 7.1 2.3 2.8 74 1.8 NE 17 19 9 10 1020.3 1020.3 0.0

Other Formats:

Comma delimited format used in spreadsheet applications
http://www.bom.gov.au/fwo/IDS60801/IDS60801.94672.axf

JavaScript Object Notation format (JSON) in row-major order
http://www.bom.gov.au/fwo/IDS60801/IDS60801.94672.json